Time;durP1;ratioP1;P1;durP2;ratioP2;P2;SDS_P1;SDS_P2;PMS_P1;PMS_P2;Temp;Humidity;BMP_temperature;BMP_pressure;BME280_temperature;BME280_humidity;BME280_pressure;Samples;Min_cycle;Max_cycle;Signal;HPM_P1;HPM_P2
2021/03/09 00:00:57;;;;;;;6.45;2.50;;;1.00;81.90;;;;;;4989191;28;20030;-70
2021/03/09 00:03:22;;;;;;;5.20;2.10;;;1.00;82.60;;;;;;4986213;28;20030;-70
2021/03/09 00:05:48;;;;;;;4.40;1.95;;;1.00;81.80;;;;;;4986380;28;20433;-70
2021/03/09 00:08:14;;;;;;;6.63;2.47;;;1.00;82.90;;;;;;4988763;28;20030;-70
2021/03/09 00:10:40;;;;;;;4.22;2.00;;;1.00;84.10;;;;;;4994628;28;20030;-70
2021/03/09 00:13:06;;;;;;;5.68;2.10;;;0.90;82.80;;;;;;4978396;28;20058;-70
2021/03/09 00:15:31;;;;;;;3.40;2.13;;;0.90;84.10;;;;;;4988726;28;20531;-70
2021/03/09 00:17:57;;;;;;;4.07;1.90;;;0.80;85.10;;;;;;4990607;28;20018;-69
2021/03/09 00:20:23;;;;;;;7.40;2.28;;;0.80;86.30;;;;;;4987708;28;20031;-70
2021/03/09 00:22:49;;;;;;;3.38;1.80;;;0.80;85.60;;;;;;4985974;28;20552;-71
2021/03/09 00:25:15;;;;;;;3.22;1.70;;;0.80;85.40;;;;;;4986466;28;20135;-71
2021/03/09 00:27:40;;;;;;;3.78;2.10;;;0.80;84.80;;;;;;4991566;28;20694;-71
2021/03/09 00:30:07;;;;;;;3.67;1.80;;;0.80;85.00;;;;;;4987989;28;20041;-71
2021/03/09 00:32:33;;;;;;;5.05;2.15;;;0.90;85.90;;;;;;4986166;28;20030;-71
2021/03/09 00:34:58;;;;;;;3.53;2.17;;;0.90;86.90;;;;;;4986770;28;20041;-71
2021/03/09 00:37:29;;;;;;;3.88;1.88;;;1.00;84.70;;;;;;5000897;28;20035;-71
2021/03/09 00:39:58;;;;;;;6.68;2.20;;;1.00;84.10;;;;;;4986909;28;20032;-71
2021/03/09 00:42:26;;;;;;;4.82;2.00;;;1.00;84.00;;;;;;4985929;28;20046;-71
2021/03/09 00:44:52;;;;;;;2.45;1.73;;;1.00;84.20;;;;;;4991458;28;20035;-71
2021/03/09 00:47:17;;;;;;;4.35;2.15;;;1.00;84.10;;;;;;4988246;28;20369;-71
2021/03/09 00:49:43;;;;;;;5.55;2.40;;;0.90;85.10;;;;;;4988441;28;20428;-71
2021/03/09 00:52:08;;;;;;;3.25;1.85;;;0.90;85.30;;;;;;4989193;28;20034;-71
2021/03/09 00:54:33;;;;;;;4.13;2.17;;;0.90;85.10;;;;;;4989167;28;20037;-71
2021/03/09 00:56:59;;;;;;;3.42;1.63;;;1.00;84.20;;;;;;4990768;28;20065;-70
2021/03/09 00:59:24;;;;;;;5.20;2.30;;;0.90;84.20;;;;;;4998086;28;20436;-71
2021/03/09 01:01:50;;;;;;;4.20;2.13;;;0.70;84.50;;;;;;4993869;28;20493;-71
2021/03/09 01:04:16;;;;;;;5.35;1.95;;;0.80;85.10;;;;;;4992179;28;20522;-71
2021/03/09 01:06:41;;;;;;;5.13;2.17;;;0.90;85.20;;;;;;4991259;28;20050;-71
2021/03/09 01:09:06;;;;;;;5.80;2.58;;;0.80;83.70;;;;;;4990755;28;20053;-71
2021/03/09 01:11:32;;;;;;;4.15;2.30;;;0.90;84.90;;;;;;4992381;28;22128;-70
2021/03/09 01:13:57;;;;;;;8.40;2.22;;;0.90;83.80;;;;;;4998395;28;20054;-71
2021/03/09 01:16:23;;;;;;;4.53;2.08;;;0.90;83.80;;;;;;4990842;28;20038;-71
2021/03/09 01:18:48;;;;;;;5.30;2.42;;;0.90;84.50;;;;;;4989411;28;20073;-71
2021/03/09 01:21:14;;;;;;;3.45;2.30;;;1.00;84.40;;;;;;4995225;28;20218;-71
2021/03/09 01:23:39;;;;;;;4.38;1.95;;;1.00;85.00;;;;;;4990523;28;20030;-70
2021/03/09 01:26:05;;;;;;;5.38;2.20;;;1.00;85.20;;;;;;4988613;28;20026;-71
2021/03/09 01:28:30;;;;;;;4.90;2.58;;;1.00;84.00;;;;;;4982723;28;20400;-70
2021/03/09 01:30:58;;;;;;;4.28;1.90;;;1.00;85.60;;;;;;4994322;28;20033;-71
2021/03/09 01:33:26;;;;;;;5.82;2.08;;;1.00;84.90;;;;;;4993795;28;20089;-71
2021/03/09 01:35:52;;;;;;;5.93;2.20;;;1.10;83.70;;;;;;4991256;28;20030;-71
2021/03/09 01:38:17;;;;;;;2.97;1.90;;;1.10;84.40;;;;;;4995297;28;20041;-71
2021/03/09 01:40:43;;;;;;;12.70;2.03;;;1.00;84.60;;;;;;4992423;28;20058;-71
2021/03/09 01:43:08;;;;;;;6.70;2.17;;;1.00;84.90;;;;;;4989438;28;20030;-71
2021/03/09 01:45:34;;;;;;;7.05;1.85;;;1.00;84.20;;;;;;4980639;28;20026;-70
2021/03/09 01:48:04;;;;;;;7.07;2.20;;;1.00;84.50;;;;;;4992113;28;20117;-70
2021/03/09 01:50:32;;;;;;;8.25;2.65;;;0.90;85.90;;;;;;4989490;28;20209;-71
2021/03/09 01:52:57;;;;;;;4.40;1.73;;;0.90;86.20;;;;;;4994927;28;20043;-71
2021/03/09 01:55:26;;;;;;;4.63;2.20;;;0.90;86.30;;;;;;4991371;28;20206;-70
2021/03/09 01:57:52;;;;;;;12.43;2.25;;;0.90;86.00;;;;;;4990783;28;20034;-70
2021/03/09 02:00:18;;;;;;;5.13;2.55;;;0.80;85.20;;;;;;4990041;28;20484;-71
2021/03/09 02:02:43;;;;;;;4.32;2.13;;;0.80;85.10;;;;;;4996090;28;20037;-70
2021/03/09 02:05:12;;;;;;;6.03;2.17;;;0.80;85.40;;;;;;4994116;28;20030;-70
2021/03/09 02:07:38;;;;;;;5.47;2.33;;;0.90;85.10;;;;;;4994745;28;20033;-70
2021/03/09 02:10:07;;;;;;;9.00;2.65;;;0.80;84.80;;;;;;4991258;28;20026;-70
2021/03/09 02:13:11;;;;;;;8.88;2.47;;;0.70;85.90;;;;;;4989290;28;20038;-69
2021/03/09 02:16:09;;;;;;;4.82;2.47;;;0.70;84.60;;;;;;4989759;28;20049;-71
2021/03/09 02:18:41;;;;;;;5.55;2.22;;;0.70;85.40;;;;;;4992421;28;20069;-72
2021/03/09 02:21:33;;;;;;;5.00;1.90;;;0.70;86.50;;;;;;4993070;28;20085;-70
2021/03/09 02:24:17;;;;;;;;;;;0.70;86.80;;;;;;4986105;28;20027;-69
2021/03/09 02:27:08;;;;;;;7.10;2.05;;;0.70;85.40;;;;;;4990116;28;19910;-70
2021/03/09 02:29:40;;;;;;;8.45;2.67;;;0.70;85.60;;;;;;4992791;28;20034;-71
2021/03/09 02:32:09;;;;;;;7.90;2.45;;;0.60;85.60;;;;;;4989553;28;20484;-71
2021/03/09 02:34:40;;;;;;;5.68;2.17;;;0.60;86.20;;;;;;4990370;28;20369;-71
2021/03/09 02:37:10;;;;;;;7.18;2.47;;;0.40;87.30;;;;;;4990847;28;20038;-71
2021/03/09 02:39:36;;;;;;;6.70;2.38;;;0.50;87.50;;;;;;4992027;28;20146;-70
2021/03/09 02:42:05;;;;;;;4.57;2.15;;;0.50;87.50;;;;;;4989833;28;20077;-70
2021/03/09 02:44:33;;;;;;;4.05;2.05;;;0.50;87.10;;;;;;4989356;28;20576;-71
2021/03/09 02:47:00;;;;;;;6.10;2.22;;;0.50;86.10;;;;;;4991264;28;20650;-70
2021/03/09 02:49:28;;;;;;;5.88;2.20;;;0.50;87.80;;;;;;4989528;28;20445;-70
2021/03/09 02:51:54;;;;;;;8.20;2.38;;;0.40;87.70;;;;;;4988807;28;20105;-70
2021/03/09 02:54:21;;;;;;;6.03;3.03;;;0.30;87.00;;;;;;4991564;28;20485;-70
2021/03/09 02:56:47;;;;;;;5.47;2.25;;;0.40;87.80;;;;;;4986473;28;20037;-70
2021/03/09 02:59:15;;;;;;;6.25;2.60;;;0.40;88.40;;;;;;5000647;28;20106;-70
2021/03/09 03:01:46;;;;;;;8.05;2.50;;;0.30;88.90;;;;;;4991692;28;20034;-70
2021/03/09 03:04:15;;;;;;;4.75;2.15;;;0.40;88.90;;;;;;4989943;28;20116;-70
2021/03/09 03:06:42;;;;;;;5.75;2.80;;;0.30;88.20;;;;;;4988040;28;20598;-70
2021/03/09 03:09:08;;;;;;;4.70;2.35;;;0.30;87.90;;;;;;4991676;28;20033;-71
2021/03/09 03:11:34;;;;;;;6.22;2.47;;;0.30;88.80;;;;;;4991521;28;20085;-70
2021/03/09 03:14:04;;;;;;;5.15;2.45;;;0.30;89.80;;;;;;4989721;28;20030;-70
2021/03/09 03:16:31;;;;;;;6.70;2.58;;;0.30;89.10;;;;;;4991525;28;20038;-70
2021/03/09 03:18:59;;;;;;;4.70;2.42;;;0.30;88.20;;;;;;4989385;28;20122;-70
2021/03/09 03:21:26;;;;;;;3.50;2.15;;;0.30;88.10;;;;;;4989217;28;20045;-70
2021/03/09 03:23:56;;;;;;;4.45;2.25;;;0.30;88.70;;;;;;4988747;28;20030;-70
2021/03/09 03:26:23;;;;;;;5.53;2.20;;;0.20;89.20;;;;;;4989864;28;20046;-70
2021/03/09 03:28:51;;;;;;;8.88;2.55;;;0.30;89.10;;;;;;4988290;28;20232;-70
2021/03/09 03:31:20;;;;;;;5.38;2.38;;;0.30;89.60;;;;;;4988396;28;20089;-69
2021/03/09 03:33:47;;;;;;;7.30;2.75;;;0.30;89.10;;;;;;4989072;28;20058;-70
2021/03/09 03:36:13;;;;;;;5.20;2.30;;;0.20;88.20;;;;;;4990930;28;20026;-70
2021/03/09 03:38:40;;;;;;;6.47;2.47;;;0.10;87.40;;;;;;4986828;28;20024;-69
2021/03/09 03:41:07;;;;;;;11.43;2.47;;;0.20;88.70;;;;;;4988871;28;20031;-70
2021/03/09 03:43:33;;;;;;;4.57;2.13;;;0.20;88.50;;;;;;4997605;28;20026;-70
2021/03/09 03:45:59;;;;;;;4.43;2.28;;;0.20;88.30;;;;;;4991160;28;20030;-70
2021/03/09 03:48:25;;;;;;;5.95;2.53;;;0.20;88.40;;;;;;4987745;28;20030;-70
2021/03/09 03:50:53;;;;;;;6.47;2.90;;;0.20;88.30;;;;;;4991190;28;20033;-70
2021/03/09 03:53:26;;;;;;;5.40;2.50;;;0.30;87.60;;;;;;4986634;28;20169;-70
2021/03/09 03:56:14;;;;;;;6.85;2.35;;;0.20;88.90;;;;;;4990331;28;20038;-70
2021/03/09 03:58:54;;;;;;;6.82;2.72;;;0.20;87.80;;;;;;4987719;28;20030;-71
2021/03/09 04:01:23;;;;;;;6.47;2.17;;;0.20;89.10;;;;;;4989778;28;20102;-71
2021/03/09 04:03:51;;;;;;;6.88;2.83;;;0.20;89.50;;;;;;4991367;28;20031;-71
2021/03/09 04:06:21;;;;;;;5.47;2.35;;;0.30;90.00;;;;;;4993379;28;20038;-71
2021/03/09 04:08:47;;;;;;;5.43;2.70;;;0.20;88.90;;;;;;4989310;28;20039;-70
2021/03/09 04:11:13;;;;;;;4.47;2.25;;;0.20;88.60;;;;;;4989821;28;20041;-70
2021/03/09 04:13:42;;;;;;;8.68;2.90;;;0.20;88.40;;;;;;4986323;28;20153;-71
2021/03/09 04:16:10;;;;;;;7.03;2.97;;;0.20;89.10;;;;;;4990764;28;20069;-71
2021/03/09 04:18:37;;;;;;;6.03;2.50;;;0.20;89.30;;;;;;4987563;28;20150;-72
2021/03/09 04:21:04;;;;;;;4.93;2.45;;;0.30;89.00;;;;;;4992625;28;20041;-71
2021/03/09 04:23:30;;;;;;;5.03;2.40;;;0.30;88.60;;;;;;4988624;28;20105;-71
2021/03/09 04:25:56;;;;;;;7.88;2.47;;;0.30;88.20;;;;;;4993330;28;20030;-70
2021/03/09 04:28:22;;;;;;;9.05;2.75;;;0.30;88.80;;;;;;4981554;28;20039;-70
2021/03/09 04:30:48;;;;;;;5.72;2.60;;;0.30;88.60;;;;;;4990979;28;20034;-71
2021/03/09 04:33:14;;;;;;;4.75;2.25;;;0.30;88.40;;;;;;4993125;28;20499;-71
2021/03/09 04:35:40;;;;;;;7.47;3.13;;;0.30;89.00;;;;;;4994405;28;20057;-71
2021/03/09 04:38:06;;;;;;;6.55;2.35;;;0.30;88.90;;;;;;4994163;28;20034;-70
2021/03/09 04:40:34;;;;;;;6.03;2.97;;;0.30;89.40;;;;;;4991657;28;20037;-70
2021/03/09 04:43:00;;;;;;;7.97;2.85;;;0.30;88.70;;;;;;4990441;28;20571;-71
2021/03/09 04:45:26;;;;;;;7.32;2.70;;;0.20;89.20;;;;;;4993154;28;20117;-71
2021/03/09 04:47:52;;;;;;;5.75;2.78;;;0.20;88.70;;;;;;5003588;28;20483;-70
2021/03/09 04:50:18;;;;;;;7.38;2.42;;;0.20;89.50;;;;;;4992346;28;20030;-71
2021/03/09 04:52:47;;;;;;;4.50;2.47;;;0.10;90.20;;;;;;4997341;28;20045;-70
2021/03/09 04:55:21;;;;;;;7.78;2.78;;;0.10;90.00;;;;;;4993197;28;20030;-70
2021/03/09 04:57:46;;;;;;;5.95;2.60;;;0.10;90.00;;;;;;4990087;28;20030;-70
2021/03/09 05:00:15;;;;;;;6.30;2.75;;;0.10;90.00;;;;;;4988615;28;20073;-70
2021/03/09 05:02:48;;;;;;;5.78;2.60;;;0.10;89.50;;;;;;4988690;28;20058;-70
2021/03/09 05:05:18;;;;;;;6.57;3.08;;;0.10;89.90;;;;;;4992328;28;20053;-70
2021/03/09 05:07:44;;;;;;;4.13;2.63;;;0.20;89.60;;;;;;4989183;28;20077;-70
2021/03/09 05:10:10;;;;;;;9.25;3.10;;;0.30;90.00;;;;;;4989595;28;20370;-70
2021/03/09 05:12:40;;;;;;;6.05;2.72;;;0.30;89.80;;;;;;4990284;28;20531;-70
2021/03/09 05:15:07;;;;;;;8.27;3.20;;;0.20;89.80;;;;;;4985241;28;20034;-70
2021/03/09 05:17:32;;;;;;;5.95;2.85;;;0.20;89.80;;;;;;4993688;28;20473;-71
2021/03/09 05:19:58;;;;;;;5.13;2.42;;;0.20;90.00;;;;;;4998776;28;20030;-71
2021/03/09 05:22:23;;;;;;;8.95;2.63;;;0.20;89.60;;;;;;4991010;28;20053;-71
2021/03/09 05:24:49;;;;;;;5.78;2.45;;;0.30;88.60;;;;;;4987672;28;20026;-70
2021/03/09 05:27:15;;;;;;;8.65;3.00;;;0.30;88.20;;;;;;4991400;28;20069;-72
2021/03/09 05:29:40;;;;;;;9.38;2.55;;;0.20;89.30;;;;;;4989121;28;20022;-71
2021/03/09 05:32:06;;;;;;;7.05;2.78;;;0.10;89.60;;;;;;4990850;28;20113;-72
2021/03/09 05:34:31;;;;;;;10.55;3.15;;;0.20;90.20;;;;;;4996741;28;20030;-71
2021/03/09 05:36:57;;;;;;;10.43;3.25;;;0.20;89.50;;;;;;4997024;28;20512;-71
2021/03/09 05:39:22;;;;;;;10.00;2.85;;;0.30;88.80;;;;;;4989486;28;21039;-72
2021/03/09 05:41:49;;;;;;;8.57;2.95;;;0.30;89.00;;;;;;4992478;28;20041;-71
2021/03/09 05:44:15;;;;;;;7.40;2.70;;;0.20;88.90;;;;;;4991637;28;20035;-71
2021/03/09 05:46:40;;;;;;;5.03;2.88;;;0.20;89.80;;;;;;4995811;28;20100;-71
2021/03/09 05:49:07;;;;;;;5.13;2.90;;;0.20;90.10;;;;;;4989399;28;20030;-70
2021/03/09 05:51:33;;;;;;;5.70;2.50;;;0.20;89.60;;;;;;4990156;28;20026;-71
2021/03/09 05:53:58;;;;;;;6.72;3.10;;;0.30;89.00;;;;;;4993253;28;20069;-71
2021/03/09 05:56:24;;;;;;;9.50;2.88;;;0.30;88.60;;;;;;4995784;28;20499;-71
2021/03/09 05:58:51;;;;;;;6.53;2.92;;;0.30;89.00;;;;;;4995154;28;20480;-71
2021/03/09 06:01:17;;;;;;;5.70;2.85;;;0.40;87.40;;;;;;4988977;28;20033;-71
2021/03/09 06:03:43;;;;;;;4.50;2.70;;;0.40;86.90;;;;;;4995450;28;20396;-72
2021/03/09 06:06:10;;;;;;;9.25;2.90;;;0.40;87.30;;;;;;4991347;28;20037;-71
2021/03/09 06:08:35;;;;;;;16.02;3.15;;;0.40;87.40;;;;;;4991675;28;20030;-71
2021/03/09 06:11:18;;;;;;;5.88;2.50;;;0.50;86.70;;;;;;4988499;28;20369;-70
2021/03/09 06:13:44;;;;;;;6.60;2.85;;;0.50;87.40;;;;;;4988753;28;20034;-71
2021/03/09 06:16:10;;;;;;;5.47;2.33;;;0.60;87.70;;;;;;4991112;28;20022;-71
2021/03/09 06:18:36;;;;;;;7.93;2.75;;;0.50;87.80;;;;;;4990658;28;20053;-71
2021/03/09 06:21:06;;;;;;;6.90;2.92;;;0.60;87.50;;;;;;4990097;28;20528;-70
2021/03/09 06:23:33;;;;;;;10.27;2.92;;;0.60;86.50;;;;;;4987796;28;20543;-71
2021/03/09 06:25:58;;;;;;;8.70;2.63;;;0.70;85.80;;;;;;4987000;28;20066;-71
2021/03/09 06:28:32;;;;;;;7.82;2.58;;;0.70;85.90;;;;;;4988499;28;20064;-71
2021/03/09 06:31:01;;;;;;;8.65;3.33;;;0.70;85.30;;;;;;4979413;28;20030;-71
2021/03/09 06:33:29;;;;;;;8.40;2.78;;;0.60;86.60;;;;;;4977580;28;20033;-70
2021/03/09 06:35:55;;;;;;;9.57;2.70;;;0.70;87.50;;;;;;4991121;28;20030;-70
2021/03/09 06:38:28;;;;;;;6.40;3.13;;;0.80;86.30;;;;;;4994330;28;20037;-71
2021/03/09 06:41:18;;;;;;;10.52;3.35;;;0.80;86.30;;;;;;4990474;28;20046;-70
2021/03/09 06:43:59;;;;;;;8.20;3.28;;;0.90;84.70;;;;;;4974754;28;20034;-78
2021/03/09 06:46:24;;;;;;;14.13;3.58;;;1.10;83.40;;;;;;4981435;28;20026;-73
2021/03/09 06:48:52;;;;;;;11.20;4.70;;;1.30;81.00;;;;;;4988799;28;20504;-69
2021/03/09 06:51:34;;;;;;;18.38;4.68;;;1.40;80.60;;;;;;4989606;28;20041;-70
2021/03/09 06:54:06;;;;;;;13.95;5.80;;;1.50;79.40;;;;;;4988447;28;20051;-73
2021/03/09 06:56:34;;;;;;;14.63;6.30;;;1.60;78.30;;;;;;4988098;28;20515;-72
2021/03/09 06:59:28;;;;;;;15.48;6.22;;;1.70;77.60;;;;;;4988646;28;20034;-74
2021/03/09 07:02:06;;;;;;;17.55;7.00;;;1.80;77.30;;;;;;4987563;28;20102;-74
2021/03/09 07:04:32;;;;;;;16.80;6.65;;;1.80;75.90;;;;;;4991112;28;20034;-74
2021/03/09 07:06:58;;;;;;;18.23;6.65;;;1.90;76.10;;;;;;4986394;28;20030;-73
2021/03/09 07:09:24;;;;;;;15.85;6.55;;;2.00;75.30;;;;;;4990953;28;20388;-75
2021/03/09 07:11:50;;;;;;;14.52;5.97;;;2.00;74.00;;;;;;4988274;28;20022;-74
2021/03/09 07:14:16;;;;;;;22.38;6.13;;;2.10;74.40;;;;;;4990186;28;20038;-72
2021/03/09 07:16:48;;;;;;;16.10;5.88;;;2.10;74.20;;;;;;4987464;28;20037;-72
2021/03/09 07:19:24;;;;;;;16.98;5.65;;;2.10;74.30;;;;;;4982851;28;20534;-72
2021/03/09 07:21:51;;;;;;;16.60;5.63;;;2.20;74.00;;;;;;4986554;28;20037;-72
2021/03/09 07:24:20;;;;;;;12.63;5.35;;;2.20;73.40;;;;;;4985086;28;20033;-71
2021/03/09 07:26:46;;;;;;;16.15;4.43;;;2.20;72.80;;;;;;4979871;28;20031;-71
2021/03/09 07:29:13;;;;;;;14.73;5.15;;;2.30;72.60;;;;;;4968128;28;20084;-77
2021/03/09 07:31:40;;;;;;;14.85;4.85;;;2.30;72.80;;;;;;4986649;28;20129;-73
2021/03/09 07:34:08;;;;;;;16.88;5.10;;;2.30;72.30;;;;;;4983689;28;20034;-71
2021/03/09 07:36:34;;;;;;;15.35;4.82;;;2.40;72.30;;;;;;4984202;28;20037;-71
2021/03/09 07:39:03;;;;;;;11.18;4.30;;;2.40;71.50;;;;;;4985024;28;20030;-74
2021/03/09 07:41:28;;;;;;;9.55;3.97;;;2.50;71.50;;;;;;4985384;28;20531;-73
2021/03/09 07:43:54;;;;;;;9.50;3.90;;;2.50;71.00;;;;;;4984199;28;20157;-68
2021/03/09 07:46:21;;;;;;;8.95;3.65;;;2.60;70.40;;;;;;4984189;28;20141;-71
2021/03/09 07:48:51;;;;;;;13.48;3.95;;;2.60;69.70;;;;;;4984226;28;20031;-71
2021/03/09 07:51:17;;;;;;;9.73;4.50;;;2.60;71.20;;;;;;4985629;28;20042;-73
2021/03/09 07:54:16;;;;;;;13.10;3.83;;;2.60;70.30;;;;;;4986947;28;20038;-73
2021/03/09 07:57:20;;;;;;;9.63;3.58;;;2.80;70.10;;;;;;4984622;28;20027;-72
2021/03/09 08:00:06;;;;;;;9.02;3.65;;;2.90;69.20;;;;;;4984978;28;20034;-73
2021/03/09 08:02:45;;;;;;;6.78;3.72;;;3.00;70.00;;;;;;4979490;28;20109;-72
2021/03/09 08:05:17;;;;;;;8.13;4.20;;;3.00;68.40;;;;;;4979660;28;20034;-69
2021/03/09 08:07:53;;;;;;;12.18;4.15;;;3.20;67.70;;;;;;4986611;28;20038;-69
2021/03/09 08:10:33;;;;;;;9.00;3.53;;;3.20;66.90;;;;;;4988534;28;20050;-69
2021/03/09 08:13:08;;;;;;;16.95;3.85;;;3.30;67.70;;;;;;4990726;28;20440;-73
2021/03/09 08:15:43;;;;;;;13.13;4.68;;;3.40;66.30;;;;;;4977722;28;20850;-72
2021/03/09 08:18:20;;;;;;;7.10;3.55;;;3.40;67.20;;;;;;4977004;28;20108;-71
2021/03/09 08:20:54;;;;;;;12.80;4.50;;;3.50;66.90;;;;;;4982091;28;20665;-70
2021/03/09 08:23:45;;;;;;;13.52;4.35;;;3.70;66.90;;;;;;4989100;28;20031;-70
2021/03/09 08:26:13;;;;;;;;;;;3.80;66.30;;;;;;4976058;28;20089;-70
2021/03/09 08:28:43;;;;;;;12.90;4.38;;;3.80;66.40;;;;;;4980280;28;19948;-70
2021/03/09 08:31:11;;;;;;;11.27;4.80;;;3.90;65.20;;;;;;4987546;28;20039;-70
2021/03/09 08:33:45;;;;;;;9.68;4.00;;;4.00;64.60;;;;;;4970858;28;20044;-70
2021/03/09 08:36:20;;;;;;;9.60;4.43;;;4.00;64.00;;;;;;4983253;28;20027;-70
2021/03/09 08:39:12;;;;;;;18.27;4.85;;;4.00;65.00;;;;;;4985221;28;20072;-71
2021/03/09 08:41:38;;;;;;;9.43;4.05;;;4.10;64.60;;;;;;4988759;28;20022;-69
2021/03/09 08:44:20;;;;;;;13.73;4.30;;;4.20;64.10;;;;;;4979985;28;20033;-71
2021/03/09 08:46:55;;;;;;;13.73;4.30;;;4.20;64.50;;;;;;4986219;28;20034;-71
2021/03/09 08:49:45;;;;;;;9.23;3.90;;;4.20;63.70;;;;;;4987862;28;20030;-72
2021/03/09 08:52:17;;;;;;;11.95;4.80;;;4.40;64.10;;;;;;4980164;28;20034;-72
2021/03/09 08:54:44;;;;;;;18.65;4.82;;;4.40;63.70;;;;;;4967601;28;20046;-72
2021/03/09 08:57:21;;;;;;;10.02;4.57;;;4.60;62.10;;;;;;4967101;28;20044;-71
2021/03/09 09:00:03;;;;;;;13.88;4.80;;;4.60;62.70;;;;;;4966333;28;20023;-72
2021/03/09 09:02:28;;;;;;;13.07;4.90;;;4.70;62.50;;;;;;4965054;28;20039;-71
2021/03/09 09:04:59;;;;;;;8.23;4.03;;;4.80;60.70;;;;;;4966966;28;20090;-74
2021/03/09 09:07:31;;;;;;;8.20;3.70;;;4.90;59.40;;;;;;4966085;28;20107;-72
2021/03/09 09:10:03;;;;;;;6.68;3.33;;;4.90;60.40;;;;;;4966644;28;20105;-71
2021/03/09 09:12:32;;;;;;;6.65;3.47;;;5.00;59.50;;;;;;4965806;28;20390;-71
2021/03/09 09:15:11;;;;;;;11.63;4.28;;;5.00;59.40;;;;;;4961094;28;20042;-71
2021/03/09 09:17:47;;;;;;;23.02;4.18;;;5.10;57.70;;;;;;4963284;28;20113;-71
2021/03/09 09:20:31;;;;;;;18.88;3.90;;;5.10;57.80;;;;;;4964427;28;20041;-73
2021/03/09 09:23:19;;;;;;;6.78;3.30;;;5.20;58.60;;;;;;4966849;28;20045;-71
2021/03/09 09:25:47;;;;;;;13.57;4.00;;;5.20;58.60;;;;;;4959485;28;20074;-72
2021/03/09 09:28:33;;;;;;;8.07;3.58;;;5.30;57.50;;;;;;4968860;28;20026;-71
2021/03/09 09:31:09;;;;;;;8.60;3.72;;;5.40;57.00;;;;;;4966843;28;20128;-71
2021/03/09 09:33:34;;;;;;;10.48;3.83;;;5.50;57.80;;;;;;4966438;28;20122;-71
2021/03/09 09:36:00;;;;;;;7.30;3.20;;;5.60;56.70;;;;;;4968179;28;20121;-73
2021/03/09 09:38:25;;;;;;;8.68;3.63;;;5.70;57.30;;;;;;4965577;28;20065;-72
2021/03/09 09:41:00;;;;;;;10.18;3.70;;;5.70;57.60;;;;;;4962307;28;20112;-72
2021/03/09 09:43:32;;;;;;;7.55;3.47;;;5.80;55.80;;;;;;4976593;28;20093;-72
2021/03/09 09:46:07;;;;;;;8.23;2.92;;;5.90;55.40;;;;;;4965664;28;20105;-71
2021/03/09 09:48:38;;;;;;;8.50;3.28;;;6.00;55.90;;;;;;4964404;28;20033;-73
2021/03/09 09:51:05;;;;;;;7.57;3.43;;;6.10;55.50;;;;;;4965465;28;20066;-69
2021/03/09 09:53:32;;;;;;;6.55;2.95;;;6.30;55.70;;;;;;4964918;28;20065;-73
2021/03/09 09:55:59;;;;;;;9.32;3.38;;;6.30;55.70;;;;;;4958506;28;20031;-73
2021/03/09 09:58:45;;;;;;;8.75;3.42;;;6.50;55.00;;;;;;4960460;28;20122;-72
2021/03/09 10:01:15;;;;;;;7.53;2.90;;;6.60;54.70;;;;;;4966508;28;20038;-72
2021/03/09 10:04:00;;;;;;;8.45;3.05;;;6.70;54.70;;;;;;4973605;28;20036;-72
2021/03/09 10:06:28;;;;;;;7.72;3.22;;;6.80;54.00;;;;;;4979713;28;20042;-72
2021/03/09 10:08:54;;;;;;;10.32;3.35;;;7.00;53.40;;;;;;4974745;28;20038;-72
2021/03/09 10:11:20;;;;;;;5.35;2.78;;;7.10;52.10;;;;;;4966884;28;20035;-73
2021/03/09 10:13:46;;;;;;;5.88;2.72;;;7.10;52.70;;;;;;4975025;28;20038;-73
2021/03/09 10:16:12;;;;;;;6.57;2.97;;;7.20;51.60;;;;;;4969742;28;20461;-72
2021/03/09 10:18:38;;;;;;;9.13;3.28;;;7.40;51.90;;;;;;4966269;28;20439;-73
2021/03/09 10:21:15;;;;;;;7.05;2.88;;;7.60;50.30;;;;;;4960378;28;20027;-73
2021/03/09 10:24:01;;;;;;;4.57;2.42;;;7.80;50.40;;;;;;4961583;28;20516;-73
2021/03/09 10:26:29;;;;;;;6.25;2.97;;;8.10;48.90;;;;;;4951775;28;20441;-73
2021/03/09 10:29:00;;;;;;;11.10;3.22;;;8.30;49.50;;;;;;4959580;28;20318;-72
2021/03/09 10:31:25;;;;;;;9.27;2.70;;;8.40;49.20;;;;;;4966883;28;20027;-74
2021/03/09 10:34:01;;;;;;;8.93;2.95;;;8.50;49.00;;;;;;4966410;28;20374;-73
2021/03/09 10:36:26;;;;;;;10.02;3.00;;;8.70;48.10;;;;;;4971684;28;20033;-74
2021/03/09 10:39:11;;;;;;;5.55;2.58;;;8.90;46.90;;;;;;4961829;28;20023;-73
2021/03/09 10:41:37;;;;;;;11.25;3.15;;;9.00;47.60;;;;;;4952091;28;20035;-73
2021/03/09 10:44:02;;;;;;;10.15;3.08;;;9.10;46.60;;;;;;4963496;28;20512;-73
2021/03/09 10:46:28;;;;;;;6.95;3.35;;;9.20;46.40;;;;;;4964244;28;20039;-73
2021/03/09 10:49:03;;;;;;;7.40;2.85;;;9.40;46.70;;;;;;5074146;28;20419;-72
2021/03/09 10:51:29;;;;;;;3.35;1.60;;;9.50;46.00;;;;;;5075487;28;20463;-72
2021/03/09 10:53:54;;;;;;;3.45;1.90;;;9.50;42.70;;;;;;5081461;28;20028;-72
2021/03/09 10:56:20;;;;;;;3.97;1.65;;;9.50;42.70;;;;;;5073496;28;20735;-72
2021/03/09 10:58:45;;;;;;;5.38;1.90;;;9.60;41.90;;;;;;5077454;28;20024;-73
2021/03/09 11:01:11;;;;;;;3.28;1.70;;;9.70;40.20;;;;;;5083891;28;20494;-73
2021/03/09 11:03:40;;;;;;;4.85;2.10;;;9.80;42.60;;;;;;5071277;28;20025;-73
2021/03/09 11:06:09;;;;;;;3.17;1.77;;;10.10;40.40;;;;;;5076851;28;20051;-73
2021/03/09 11:08:34;;;;;;;4.47;1.92;;;10.00;40.40;;;;;;5077096;28;20550;-72
2021/03/09 11:11:05;;;;;;;3.47;2.10;;;9.80;41.50;;;;;;5079312;28;20035;-72
2021/03/09 11:13:31;;;;;;;5.88;2.17;;;9.80;41.70;;;;;;5072356;28;20031;-73
2021/03/09 11:15:56;;;;;;;5.55;2.70;;;9.70;41.10;;;;;;5079244;28;20028;-73
2021/03/09 11:18:22;;;;;;;7.43;2.15;;;9.50;42.70;;;;;;5080752;28;20162;-73
2021/03/09 11:20:47;;;;;;;7.30;2.22;;;9.50;41.50;;;;;;5080504;28;20032;-72
2021/03/09 11:23:13;;;;;;;4.65;2.47;;;9.80;42.30;;;;;;5075157;28;20029;-73
2021/03/09 11:25:38;;;;;;;4.25;1.90;;;10.00;41.10;;;;;;5080576;28;20708;-73
2021/03/09 11:28:04;;;;;;;5.80;2.35;;;10.20;40.90;;;;;;5080567;28;20587;-73
2021/03/09 11:30:30;;;;;;;6.35;2.08;;;10.30;40.90;;;;;;5072358;28;20502;-72
2021/03/09 11:33:03;;;;;;;4.30;2.30;;;10.30;40.60;;;;;;5077180;28;20016;-72
2021/03/09 11:35:29;;;;;;;3.47;1.83;;;10.30;39.60;;;;;;5074235;28;20032;-74
2021/03/09 11:37:55;;;;;;;6.43;2.53;;;10.20;39.20;;;;;;5071216;28;20039;-74
2021/03/09 11:40:20;;;;;;;3.25;1.77;;;10.20;39.30;;;;;;5075357;28;20020;-73
2021/03/09 11:42:46;;;;;;;5.90;2.60;;;10.00;40.30;;;;;;5075916;28;20059;-73
2021/03/09 11:45:12;;;;;;;2.63;1.70;;;10.10;40.00;;;;;;5077127;28;20053;-73
2021/03/09 11:47:37;;;;;;;3.45;1.60;;;10.30;36.60;;;;;;5073952;28;20070;-72
2021/03/09 11:50:04;;;;;;;2.47;1.67;;;10.50;35.70;;;;;;5078481;28;20439;-72
2021/03/09 11:52:30;;;;;;;3.40;1.90;;;10.70;36.40;;;;;;5071455;28;20095;-72
2021/03/09 11:54:56;;;;;;;3.25;1.77;;;10.80;35.90;;;;;;5076929;28;20089;-73
2021/03/09 11:57:22;;;;;;;2.85;1.55;;;11.00;38.40;;;;;;5070047;28;20032;-73
2021/03/09 11:59:50;;;;;;;2.30;1.67;;;11.50;37.60;;;;;;5044378;28;20025;-71
2021/03/09 12:02:16;;;;;;;8.50;1.83;;;12.20;37.70;;;;;;5048689;28;20036;-71
2021/03/09 12:04:41;;;;;;;4.88;2.22;;;12.60;35.90;;;;;;5045082;28;20106;-71
2021/03/09 12:07:17;;;;;;;3.85;1.73;;;13.00;34.40;;;;;;5033983;28;20502;-71
2021/03/09 12:09:43;;;;;;;3.47;1.95;;;13.00;33.00;;;;;;5050265;28;20499;-70
2021/03/09 12:12:09;;;;;;;5.15;2.00;;;13.10;33.80;;;;;;5055242;28;20017;-71
2021/03/09 12:14:34;;;;;;;3.22;1.80;;;13.50;33.10;;;;;;5060115;28;20520;-73
2021/03/09 12:17:00;;;;;;;3.40;1.98;;;14.20;33.30;;;;;;5052232;28;20100;-71
2021/03/09 12:19:26;;;;;;;3.38;1.75;;;14.60;30.90;;;;;;5048458;28;20418;-70
2021/03/09 12:21:51;;;;;;;5.95;2.67;;;14.50;31.50;;;;;;5056030;28;20090;-72
2021/03/09 12:24:17;;;;;;;7.40;2.25;;;14.30;30.90;;;;;;5061528;28;21149;-71
2021/03/09 12:26:42;;;;;;;4.13;1.98;;;13.80;31.10;;;;;;5062123;28;20082;-71
2021/03/09 12:29:08;;;;;;;4.22;2.05;;;14.10;31.60;;;;;;5057206;28;20130;-72
2021/03/09 12:31:34;;;;;;;3.53;2.15;;;14.20;32.50;;;;;;5049725;28;20052;-71
2021/03/09 12:33:59;;;;;;;4.22;2.42;;;14.00;33.10;;;;;;5060330;28;20051;-75
2021/03/09 12:36:25;;;;;;;3.22;1.90;;;13.90;32.20;;;;;;5052902;28;20525;-75
2021/03/09 12:38:54;;;;;;;5.40;2.38;;;13.60;31.50;;;;;;5052833;28;20043;-74
2021/03/09 12:41:23;;;;;;;2.95;2.10;;;13.10;31.90;;;;;;5052085;28;20215;-76
2021/03/09 12:43:48;;;;;;;2.60;1.67;;;12.60;34.20;;;;;;5053618;28;20074;-75
2021/03/09 12:46:14;;;;;;;3.95;2.00;;;12.50;34.50;;;;;;5055434;28;20049;-75
2021/03/09 12:48:39;;;;;;;5.88;2.45;;;12.60;35.60;;;;;;5052808;28;20513;-75
2021/03/09 12:51:05;;;;;;;3.28;2.03;;;12.50;34.10;;;;;;5053525;28;20028;-72
2021/03/09 12:53:30;;;;;;;3.22;1.98;;;12.90;33.70;;;;;;5056684;28;20029;-74
2021/03/09 12:55:56;;;;;;;5.22;2.35;;;13.50;33.30;;;;;;5048814;28;20025;-74
2021/03/09 12:58:21;;;;;;;4.00;1.95;;;13.90;31.50;;;;;;5062378;28;20038;-74
2021/03/09 13:00:47;;;;;;;6.55;2.30;;;14.00;31.50;;;;;;5053090;28;20039;-72
2021/03/09 13:03:15;;;;;;;3.20;2.03;;;14.00;32.60;;;;;;5054269;28;20496;-72
2021/03/09 13:05:40;;;;;;;4.85;2.22;;;14.10;32.00;;;;;;5052137;28;20024;-73